Time;durP1;ratioP1;P1;durP2;ratioP2;P2;SDS_P1;SDS_P2;PMS_P1;PMS_P2;Temp;Humidity;BMP_temperature;BMP_pressure;BME280_temperature;BME280_humidity;BME280_pressure;Samples;Min_cycle;Max_cycle;Signal;HPM_P1;HPM_P2
2023/07/12 00:00:59;;;;;;;8.37;3.20;;;20.40;41.60;;;;;;5083160;27;46478;-83
2023/07/12 00:03:24;;;;;;;9.27;3.30;;;20.40;41.60;;;;;;5079533;27;46503;-84
2023/07/12 00:05:50;;;;;;;10.40;3.40;;;20.50;41.50;;;;;;5065257;27;48040;-82
2023/07/12 00:08:22;;;;;;;6.03;2.43;;;20.60;41.50;;;;;;5083317;27;46505;-85
2023/07/12 00:10:49;;;;;;;12.10;2.90;;;20.40;41.50;;;;;;5084763;27;46726;-85
2023/07/12 00:13:16;;;;;;;12.37;3.07;;;20.50;41.60;;;;;;5082163;27;46308;-83
2023/07/12 00:15:42;;;;;;;10.13;2.77;;;20.40;41.60;;;;;;5058987;27;49426;-82
2023/07/12 00:18:13;;;;;;;13.43;3.10;;;20.50;42.00;;;;;;5059741;27;46655;-83
2023/07/12 00:20:39;;;;;;;11.93;4.03;;;20.50;42.10;;;;;;5082376;27;46532;-83
2023/07/12 00:23:05;;;;;;;15.10;3.47;;;20.50;42.10;;;;;;5081676;27;46540;-83
2023/07/12 00:25:32;;;;;;;8.37;3.00;;;20.50;42.10;;;;;;5080401;27;47116;-83
2023/07/12 00:27:59;;;;;;;8.87;3.30;;;20.50;42.10;;;;;;5060616;27;46400;-83
2023/07/12 00:30:31;;;;;;;15.20;2.90;;;20.60;42.30;;;;;;5081658;27;46470;-81
2023/07/12 00:33:02;;;;;;;8.30;3.23;;;20.50;42.60;;;;;;5074197;27;46487;-82
2023/07/12 00:35:30;;;;;;;12.27;2.80;;;20.50;42.90;;;;;;5080380;27;47430;-83
2023/07/12 00:37:59;;;;;;;10.73;3.40;;;20.40;43.30;;;;;;5081822;27;46488;-83
2023/07/12 00:41:03;;;;;;;9.33;2.70;;;20.20;43.80;;;;;;5079611;27;46371;-82
2023/07/12 00:43:39;;;;;;;8.40;3.10;;;20.00;45.00;;;;;;5071907;27;46639;-82
2023/07/12 00:46:33;;;;;;;6.87;2.73;;;20.10;44.50;;;;;;5061078;27;48354;-82
2023/07/12 00:48:59;;;;;;;7.30;2.87;;;20.20;44.30;;;;;;5078435;27;46486;-82
2023/07/12 00:52:04;;;;;;;9.13;3.27;;;20.30;43.40;;;;;;5078214;27;46832;-82
2023/07/12 00:54:56;;;;;;;15.20;2.70;;;20.30;43.80;;;;;;5061131;27;46413;-81
2023/07/12 00:57:23;;;;;;;9.47;2.80;;;20.20;44.30;;;;;;5060847;27;49640;-84
2023/07/12 00:59:51;;;;;;;11.23;3.70;;;20.20;44.00;;;;;;5080203;27;46473;-83
2023/07/12 01:02:16;;;;;;;7.90;2.83;;;20.10;45.20;;;;;;5079827;27;47172;-83
2023/07/12 01:04:45;;;;;;;7.10;3.13;;;20.10;45.00;;;;;;5059544;28;46461;-82
2023/07/12 01:07:12;;;;;;;9.90;3.53;;;20.20;45.00;;;;;;5079105;27;46824;-82
2023/07/12 01:09:38;;;;;;;6.60;2.93;;;20.20;44.70;;;;;;5081407;27;46997;-82
2023/07/12 01:12:04;;;;;;;9.93;2.60;;;20.20;44.70;;;;;;5079745;27;46426;-82
2023/07/12 01:14:29;;;;;;;7.97;3.23;;;20.30;44.50;;;;;;5082382;27;46400;-83
2023/07/12 01:16:58;;;;;;;9.80;3.17;;;20.30;44.70;;;;;;5078008;27;47259;-82
2023/07/12 01:19:24;;;;;;;8.80;3.20;;;20.10;45.50;;;;;;5078289;27;46484;-83
2023/07/12 01:21:52;;;;;;;8.23;3.33;;;20.00;46.10;;;;;;5078136;27;46154;-82
2023/07/12 01:24:19;;;;;;;7.60;3.43;;;20.10;46.20;;;;;;5076986;27;46453;-83
2023/07/12 01:26:50;;;;;;;8.70;3.13;;;20.10;46.30;;;;;;5061450;27;48089;-82
2023/07/12 01:29:16;;;;;;;7.80;3.40;;;20.00;46.60;;;;;;5076197;27;46513;-82
2023/07/12 01:31:43;;;;;;;9.63;3.43;;;20.00;46.60;;;;;;5060859;27;46459;-83
2023/07/12 01:34:09;;;;;;;10.63;2.93;;;20.20;46.80;;;;;;5080168;27;47339;-83
2023/07/12 01:36:35;;;;;;;10.93;3.10;;;20.10;46.30;;;;;;5079607;27;47202;-84
2023/07/12 01:39:02;;;;;;;7.33;2.90;;;20.10;46.60;;;;;;5079476;27;46360;-82
2023/07/12 01:41:28;;;;;;;12.30;3.70;;;20.00;46.60;;;;;;5067485;27;45864;-85
2023/07/12 01:43:54;;;;;;;14.10;3.77;;;20.00;47.40;;;;;;5079720;27;46577;-82
2023/07/12 01:46:20;;;;;;;8.87;3.37;;;20.00;47.10;;;;;;5060488;27;48785;-83
2023/07/12 01:48:46;;;;;;;9.90;3.10;;;20.00;46.80;;;;;;5078561;27;46466;-80
2023/07/12 01:51:13;;;;;;;7.63;3.47;;;20.00;46.50;;;;;;5081869;27;46526;-83
2023/07/12 01:53:38;;;;;;;12.83;3.63;;;20.20;46.60;;;;;;5080379;27;46401;-82
2023/07/12 01:56:05;;;;;;;7.93;3.87;;;20.10;46.20;;;;;;5078331;27;46438;-81
2023/07/12 01:58:31;;;;;;;15.57;3.10;;;20.10;46.40;;;;;;5078863;27;46912;-82
2023/07/12 02:00:58;;;;;;;10.00;3.80;;;20.00;47.10;;;;;;5080522;27;46539;-82
2023/07/12 02:03:24;;;;;;;7.27;3.30;;;20.00;47.60;;;;;;5083639;27;46684;-84
2023/07/12 02:05:50;;;;;;;12.57;3.43;;;19.90;47.60;;;;;;5083622;27;47655;-82
2023/07/12 02:08:16;;;;;;;7.80;3.77;;;19.80;47.60;;;;;;5082390;27;47429;-81
2023/07/12 02:10:42;;;;;;;11.03;3.57;;;19.80;49.40;;;;;;5083609;27;46807;-82
2023/07/12 02:13:07;;;;;;;11.73;3.00;;;19.70;51.60;;;;;;5083993;27;48108;-84
2023/07/12 02:15:33;;;;;;;9.27;3.53;;;19.70;52.10;;;;;;5083442;27;48443;-82
2023/07/12 02:18:00;;;;;;;12.70;3.40;;;19.70;51.60;;;;;;5075683;27;46477;-79
2023/07/12 02:20:25;;;;;;;7.37;3.03;;;19.80;51.40;;;;;;5081530;27;46530;-80
2023/07/12 02:22:51;;;;;;;6.10;2.60;;;19.80;51.30;;;;;;5080278;27;46771;-80
2023/07/12 02:25:18;;;;;;;17.70;3.13;;;19.80;51.10;;;;;;5082374;27;46492;-80
2023/07/12 02:27:44;;;;;;;14.50;3.37;;;19.90;50.90;;;;;;5077913;27;46637;-80
2023/07/12 02:30:17;;;;;;;9.80;3.50;;;19.90;52.00;;;;;;5081716;27;47321;-80
2023/07/12 02:32:43;;;;;;;10.63;3.70;;;19.90;50.80;;;;;;5081868;27;46410;-80
2023/07/12 02:35:09;;;;;;;7.30;3.10;;;19.80;50.90;;;;;;5079313;27;49235;-80
2023/07/12 02:37:35;;;;;;;9.50;3.60;;;19.80;51.00;;;;;;5064871;27;46500;-80
2023/07/12 02:40:03;;;;;;;12.40;4.03;;;19.80;51.00;;;;;;5081427;27;46534;-81
2023/07/12 02:42:28;;;;;;;12.23;3.83;;;19.70;51.00;;;;;;5081606;27;46557;-80
2023/07/12 02:44:54;;;;;;;11.90;4.20;;;19.60;51.10;;;;;;5066921;27;48209;-80
2023/07/12 02:47:20;;;;;;;14.43;4.43;;;19.60;51.20;;;;;;5083945;27;46505;-80
2023/07/12 02:49:45;;;;;;;8.23;4.30;;;19.60;51.30;;;;;;5084557;27;46445;-80
2023/07/12 02:52:11;;;;;;;10.57;4.33;;;19.60;51.40;;;;;;5078198;27;46291;-80
2023/07/12 02:54:36;;;;;;;10.20;4.23;;;19.60;51.60;;;;;;5068968;27;49150;-79
2023/07/12 02:57:03;;;;;;;11.30;4.37;;;19.50;51.50;;;;;;5084816;27;46607;-80
2023/07/12 02:59:29;;;;;;;13.80;4.97;;;19.60;51.60;;;;;;5064302;27;46958;-80
2023/07/12 03:01:55;;;;;;;14.10;4.73;;;19.50;51.60;;;;;;5083102;27;46580;-80
2023/07/12 03:04:22;;;;;;;22.57;5.47;;;19.50;51.70;;;;;;5082777;27;47508;-79
2023/07/12 03:06:48;;;;;;;14.83;4.67;;;19.50;51.90;;;;;;5080067;27;46959;-77
2023/07/12 03:09:14;;;;;;;13.23;4.97;;;19.50;52.20;;;;;;5082527;27;46492;-80
2023/07/12 03:11:40;;;;;;;9.23;4.33;;;19.50;52.20;;;;;;5080505;27;46478;-82
2023/07/12 03:14:06;;;;;;;20.37;4.53;;;19.50;53.30;;;;;;5087633;27;46481;-80
2023/07/12 03:16:32;;;;;;;10.20;4.70;;;19.40;53.30;;;;;;5081729;27;46658;-82
2023/07/12 03:18:59;;;;;;;8.83;4.50;;;19.50;52.30;;;;;;5084337;27;46448;-80
2023/07/12 03:21:25;;;;;;;10.43;4.77;;;19.40;52.40;;;;;;5086362;27;46515;-79
2023/07/12 03:23:50;;;;;;;17.40;5.57;;;19.40;52.70;;;;;;5079922;27;46417;-80
2023/07/12 03:26:16;;;;;;;14.27;4.80;;;19.40;52.80;;;;;;5064069;27;46463;-80
2023/07/12 03:28:42;;;;;;;14.43;4.33;;;19.40;53.70;;;;;;5080461;27;46430;-81
2023/07/12 03:31:12;;;;;;;12.37;4.20;;;19.40;54.00;;;;;;5080743;27;46645;-82
2023/07/12 03:33:38;;;;;;;13.13;5.90;;;19.30;54.40;;;;;;5063332;27;49547;-81
2023/07/12 03:36:04;;;;;;;9.93;4.60;;;19.30;54.50;;;;;;5081180;27;46327;-80
2023/07/12 03:38:30;;;;;;;14.23;5.10;;;19.30;55.20;;;;;;5082632;27;46482;-80
2023/07/12 03:41:07;;;;;;;13.23;4.53;;;19.30;55.90;;;;;;5065778;27;46619;-81
2023/07/12 03:43:33;;;;;;;9.23;4.77;;;19.30;56.10;;;;;;5085278;27;46505;-80
2023/07/12 03:45:58;;;;;;;11.17;5.17;;;19.40;56.10;;;;;;5066775;27;47128;-80
2023/07/12 03:48:24;;;;;;;13.87;5.77;;;19.40;56.00;;;;;;5080859;27;46461;-80
2023/07/12 03:50:52;;;;;;;15.80;5.40;;;19.40;55.80;;;;;;5080336;27;46524;-79
2023/07/12 03:53:18;;;;;;;11.27;5.00;;;19.40;55.50;;;;;;5077439;27;47077;-80
2023/07/12 03:55:45;;;;;;;10.50;5.40;;;19.40;55.50;;;;;;5080233;27;47755;-81
2023/07/12 03:58:14;;;;;;;13.73;5.20;;;19.40;55.50;;;;;;5079305;27;46942;-81
2023/07/12 04:00:45;;;;;;;22.53;5.83;;;19.40;55.50;;;;;;5079762;27;46568;-80
2023/07/12 04:03:11;;;;;;;17.77;5.90;;;19.40;55.30;;;;;;5082173;27;46458;-80
2023/07/12 04:05:41;;;;;;;13.20;4.80;;;19.50;55.10;;;;;;5080694;27;46687;-80
2023/07/12 04:08:09;;;;;;;18.00;5.00;;;19.50;55.00;;;;;;5078312;27;46397;-80
2023/07/12 04:10:35;;;;;;;12.17;4.43;;;19.60;55.00;;;;;;5081582;27;45839;-80
2023/07/12 04:13:02;;;;;;;10.27;4.70;;;19.60;54.50;;;;;;5077956;27;47133;-80
2023/07/12 04:15:27;;;;;;;12.03;5.00;;;19.90;54.60;;;;;;5079924;27;46776;-79
2023/07/12 04:17:53;;;;;;;17.77;5.67;;;19.70;54.30;;;;;;5080961;27;46489;-80
2023/07/12 04:20:19;;;;;;;13.83;5.13;;;19.80;54.40;;;;;;5078976;27;46473;-79
2023/07/12 04:22:49;;;;;;;13.97;4.70;;;19.80;54.10;;;;;;5059428;27;48525;-79
2023/07/12 04:25:14;;;;;;;15.20;5.03;;;19.90;53.90;;;;;;5079175;27;46484;-79
2023/07/12 04:27:40;;;;;;;14.23;4.97;;;20.00;53.40;;;;;;5060775;27;46488;-80
2023/07/12 04:30:08;;;;;;;15.83;5.20;;;20.20;53.40;;;;;;5077387;27;46657;-78
2023/07/12 04:32:34;;;;;;;17.27;4.63;;;20.10;53.00;;;;;;5078103;27;48460;-79
2023/07/12 04:35:00;;;;;;;13.50;4.80;;;20.20;52.90;;;;;;5059891;27;47139;-79
2023/07/12 04:37:26;;;;;;;16.17;4.47;;;20.30;52.60;;;;;;5078253;27;46465;-79
2023/07/12 04:39:52;;;;;;;11.33;4.00;;;20.30;52.50;;;;;;5079727;27;46450;-79
2023/07/12 04:42:18;;;;;;;8.50;4.30;;;20.40;52.00;;;;;;5077326;27;46492;-80
2023/07/12 04:44:44;;;;;;;11.77;4.60;;;20.60;51.60;;;;;;5079296;27;46535;-81
2023/07/12 04:47:09;;;;;;;9.40;4.10;;;20.80;51.20;;;;;;5079034;27;46506;-80
2023/07/12 04:49:35;;;;;;;13.30;4.50;;;20.90;50.50;;;;;;5078087;27;47148;-79
2023/07/12 04:52:01;;;;;;;11.43;3.80;;;21.20;49.50;;;;;;5079852;27;46703;-81
2023/07/12 04:54:26;;;;;;;12.03;4.20;;;21.40;49.00;;;;;;5078280;27;46436;-80
2023/07/12 04:56:52;;;;;;;15.03;3.77;;;21.60;48.20;;;;;;5080018;27;46443;-80
2023/07/12 04:59:18;;;;;;;12.30;4.30;;;22.10;47.10;;;;;;5081805;27;46860;-81
2023/07/12 05:01:45;;;;;;;9.40;3.30;;;22.50;45.90;;;;;;5079173;27;46395;-83
2023/07/12 05:04:11;;;;;;;9.27;2.90;;;23.40;44.40;;;;;;5084219;27;46652;-83
2023/07/12 05:06:37;;;;;;;19.10;3.80;;;24.10;41.10;;;;;;5079997;27;46611;-80
2023/07/12 05:09:03;;;;;;;29.17;5.07;;;24.00;40.00;;;;;;5064270;27;46889;-80
2023/07/12 05:11:29;;;;;;;12.73;3.57;;;24.00;40.00;;;;;;5081352;27;47091;-82
2023/07/12 05:13:54;;;;;;;13.57;3.70;;;23.90;39.70;;;;;;5078050;27;46740;-82
2023/07/12 05:16:20;;;;;;;10.53;3.53;;;23.70;39.60;;;;;;5081659;27;46503;-83
2023/07/12 05:18:46;;;;;;;9.23;3.20;;;23.60;39.40;;;;;;5078504;27;46722;-85
2023/07/12 05:21:12;;;;;;;25.20;4.13;;;23.60;39.50;;;;;;5080131;27;46478;-82
2023/07/12 05:23:39;;;;;;;11.33;3.70;;;23.50;39.50;;;;;;5078960;27;46414;-81
2023/07/12 05:26:06;;;;;;;14.07;5.00;;;23.30;39.70;;;;;;5077527;27;45831;-82
2023/07/12 05:28:31;;;;;;;12.10;3.90;;;23.10;39.90;;;;;;5078737;27;46823;-82
2023/07/12 05:30:57;;;;;;;18.77;4.20;;;22.90;40.30;;;;;;5076649;27;46694;-82
2023/07/12 05:33:22;;;;;;;15.17;4.20;;;22.80;41.00;;;;;;5078241;27;45942;-81
2023/07/12 05:35:48;;;;;;;11.33;3.00;;;22.60;41.20;;;;;;5085706;27;46449;-82
2023/07/12 05:38:14;;;;;;;10.80;3.40;;;22.60;41.40;;;;;;5067331;27;46352;-80
2023/07/12 05:40:39;;;;;;;15.87;4.80;;;22.40;41.80;;;;;;5087701;27;47317;-83
2023/07/12 05:43:05;;;;;;;13.93;4.27;;;22.20;42.50;;;;;;5085597;27;46406;-82
2023/07/12 05:45:30;;;;;;;10.33;4.03;;;22.00;43.20;;;;;;5088523;27;46923;-83
2023/07/12 05:47:56;;;;;;;10.80;4.43;;;21.80;44.00;;;;;;5087753;27;46610;-83
2023/07/12 05:50:21;;;;;;;16.00;4.37;;;21.70;44.10;;;;;;5080932;27;47845;-79
2023/07/12 05:52:48;;;;;;;13.53;4.00;;;21.70;44.30;;;;;;5079275;27;45864;-82
2023/07/12 05:55:17;;;;;;;9.73;4.30;;;21.50;44.10;;;;;;5085562;27;47062;-83
2023/07/12 05:57:43;;;;;;;10.00;3.57;;;21.40;44.40;;;;;;5086923;27;46469;-81
2023/07/12 06:00:10;;;;;;;11.63;3.47;;;21.30;44.90;;;;;;5088358;27;46491;-80
2023/07/12 06:02:37;;;;;;;8.97;3.70;;;21.20;45.30;;;;;;5065031;27;46645;-81
2023/07/12 06:05:04;;;;;;;14.83;3.27;;;21.10;46.80;;;;;;5085758;27;45828;-83
2023/07/12 06:07:30;;;;;;;13.43;3.67;;;21.00;46.00;;;;;;5086978;27;46467;-81
2023/07/12 06:09:55;;;;;;;7.47;3.00;;;20.90;46.20;;;;;;5066124;27;49423;-83
2023/07/12 06:12:21;;;;;;;10.20;3.40;;;20.80;46.10;;;;;;5089235;27;46437;-81
2023/07/12 06:14:46;;;;;;;9.57;3.10;;;20.80;46.10;;;;;;5087324;27;46218;-80
2023/07/12 06:17:12;;;;;;;16.87;3.27;;;20.80;46.00;;;;;;5085762;27;46632;-81
2023/07/12 06:19:37;;;;;;;6.43;2.83;;;20.70;46.00;;;;;;5084353;27;47696;-82
2023/07/12 06:22:04;;;;;;;8.53;3.60;;;20.70;46.00;;;;;;5064273;27;45911;-83
2023/07/12 06:24:30;;;;;;;7.73;3.73;;;20.70;46.00;;;;;;5086963;27;46530;-82
2023/07/12 06:26:55;;;;;;;9.10;3.53;;;20.60;45.90;;;;;;5087228;27;46606;-81
2023/07/12 06:29:21;;;;;;;8.33;3.50;;;20.60;46.10;;;;;;5088311;27;46813;-81
2023/07/12 06:31:47;;;;;;;5.87;3.00;;;20.60;46.00;;;;;;5082383;27;46523;-82
2023/07/12 06:34:13;;;;;;;12.23;3.50;;;20.60;46.00;;;;;;5085689;27;46633;-82
2023/07/12 06:36:38;;;;;;;15.13;3.40;;;20.60;45.80;;;;;;5062777;27;46404;-80
2023/07/12 06:39:04;;;;;;;17.80;3.50;;;20.60;45.70;;;;;;5083849;27;46808;-82
2023/07/12 06:41:30;;;;;;;10.20;3.20;;;20.60;45.50;;;;;;5088542;27;46811;-82
2023/07/12 06:43:56;;;;;;;11.73;3.80;;;20.70;45.50;;;;;;5068841;27;46836;-84
2023/07/12 06:46:21;;;;;;;8.33;3.37;;;20.80;45.20;;;;;;5084219;27;46500;-83
2023/07/12 06:48:47;;;;;;;11.80;4.00;;;20.90;45.00;;;;;;5085997;27;46451;-79
2023/07/12 06:51:13;;;;;;;10.47;3.00;;;21.00;44.70;;;;;;5086116;27;46509;-81
2023/07/12 06:53:38;;;;;;;9.20;3.37;;;21.10;44.30;;;;;;5089102;27;46405;-82
2023/07/12 06:56:04;;;;;;;9.93;3.00;;;21.40;44.00;;;;;;5082997;27;46382;-81
2023/07/12 06:58:30;;;;;;;8.07;3.00;;;21.40;43.40;;;;;;5081726;27;46800;-82
2023/07/12 07:00:55;;;;;;;10.63;2.90;;;21.50;43.10;;;;;;5063832;27;46507;-83
2023/07/12 07:03:21;;;;;;;10.47;2.43;;;21.50;42.90;;;;;;5082198;27;46687;-83
2023/07/12 07:05:47;;;;;;;8.50;2.77;;;21.60;42.80;;;;;;5087339;27;46005;-81
2023/07/12 07:08:18;;;;;;;6.23;2.53;;;21.60;42.50;;;;;;5078025;27;47596;-83
2023/07/12 07:10:48;;;;;;;6.73;2.33;;;21.70;42.30;;;;;;5059854;28;46484;-82
2023/07/12 07:13:13;;;;;;;5.30;2.40;;;21.80;41.90;;;;;;5076867;27;46435;-82
2023/07/12 07:15:39;;;;;;;6.40;2.33;;;21.90;41.30;;;;;;5081735;27;46800;-82
2023/07/12 07:18:04;;;;;;;7.50;2.60;;;22.00;41.30;;;;;;5081535;27;46724;-84
2023/07/12 07:20:30;;;;;;;7.97;2.30;;;22.10;41.30;;;;;;5067828;27;46290;-83
2023/07/12 07:22:55;;;;;;;8.40;2.80;;;22.10;40.80;;;;;;5088286;27;46682;-82
2023/07/12 07:25:22;;;;;;;7.43;2.80;;;22.30;40.60;;;;;;5082895;27;46483;-83
2023/07/12 07:27:47;;;;;;;12.53;2.53;;;22.30;40.00;;;;;;5079685;27;46633;-84
2023/07/12 07:30:14;;;;;;;6.57;2.17;;;22.50;39.40;;;;;;5083266;27;45984;-84
2023/07/12 07:32:39;;;;;;;7.57;2.30;;;22.70;38.60;;;;;;5079455;27;46445;-84
2023/07/12 07:35:05;;;;;;;11.47;2.23;;;22.90;37.90;;;;;;5079182;27;46423;-83
2023/07/12 07:37:31;;;;;;;5.00;2.10;;;23.20;37.00;;;;;;5061216;27;48621;-83
2023/07/12 07:39:56;;;;;;;7.80;2.23;;;23.50;37.20;;;;;;5080119;27;46699;-81
2023/07/12 07:42:22;;;;;;;8.23;2.50;;;23.70;36.10;;;;;;5082230;27;46395;-84
2023/07/12 07:44:48;;;;;;;4.30;1.70;;;23.80;34.90;;;;;;5084363;27;45897;-84
2023/07/12 07:47:14;;;;;;;7.33;2.20;;;24.20;34.20;;;;;;5081693;27;46443;-84
2023/07/12 07:49:39;;;;;;;4.00;1.87;;;24.50;33.50;;;;;;5079506;27;46494;-81
2023/07/12 07:52:05;;;;;;;8.50;2.40;;;24.60;32.70;;;;;;5078009;27;46733;-81
2023/07/12 07:54:31;;;;;;;5.43;2.10;;;24.80;32.00;;;;;;5080199;27;46597;-82
2023/07/12 07:56:57;;;;;;;6.80;2.23;;;;;;;;;;5079871;27;47352;-80
2023/07/12 07:59:22;;;;;;;8.57;2.47;;;25.10;29.50;;;;;;5079092;27;46813;-83
2023/07/12 08:01:48;;;;;;;4.63;1.80;;;25.40;29.80;;;;;;5079739;27;46356;-82
2023/07/12 08:04:13;;;;;;;7.10;2.20;;;25.50;29.30;;;;;;5079316;27;46662;-83
2023/07/12 08:06:39;;;;;;;6.00;2.50;;;25.70;28.70;;;;;;5080146;27;46403;-84
2023/07/12 08:09:07;;;;;;;4.90;2.17;;;26.10;28.00;;;;;;5078892;27;46759;-83
2023/07/12 08:11:33;;;;;;;4.63;1.90;;;26.50;25.90;;;;;;5079885;27;46494;-85
2023/07/12 08:13:58;;;;;;;4.73;1.63;;;26.50;26.80;;;;;;5082262;27;46664;-84
2023/07/12 08:16:26;;;;;;;6.47;2.53;;;26.70;26.90;;;;;;5079845;27;46404;-81
2023/07/12 08:18:52;;;;;;;6.33;2.10;;;26.70;26.30;;;;;;5080157;27;46446;-83
2023/07/12 08:21:18;;;;;;;6.00;1.80;;;26.60;26.40;;;;;;5083709;27;47005;-83
2023/07/12 08:23:43;;;;;;;5.80;1.90;;;26.80;25.80;;;;;;5082815;27;46399;-83
2023/07/12 08:26:09;;;;;;;10.63;1.90;;;26.90;25.50;;;;;;5079259;27;46376;-80
2023/07/12 08:28:34;;;;;;;5.43;1.80;;;26.90;25.10;;;;;;5078968;27;46497;-83
2023/07/12 08:31:00;;;;;;;14.40;2.00;;;26.90;25.00;;;;;;5078887;27;46536;-81
2023/07/12 08:33:25;;;;;;;4.80;1.83;;;27.20;24.80;;;;;;5073748;27;46486;-81
2023/07/12 08:35:51;;;;;;;4.77;1.73;;;27.00;24.20;;;;;;5078756;27;47010;-84
2023/07/12 08:38:18;;;;;;;4.80;2.03;;;27.00;24.10;;;;;;5082365;27;46748;-82
2023/07/12 08:40:47;;;;;;;5.00;2.07;;;27.20;23.70;;;;;;5080741;27;46478;-84
2023/07/12 08:43:17;;;;;;;4.07;1.77;;;27.30;23.20;;;;;;5079214;27;46152;-82
2023/07/12 08:45:45;;;;;;;4.40;1.80;;;27.40;22.70;;;;;;5078783;27;47248;-81
2023/07/12 08:48:22;;;;;;;6.00;2.73;;;27.50;22.70;;;;;;5077772;27;46567;-79
2023/07/12 08:50:49;;;;;;;6.30;2.40;;;27.30;22.70;;;;;;5087246;27;46509;-86
2023/07/12 08:53:23;;;;;;;6.40;2.17;;;27.20;22.90;;;;;;5078152;27;46996;-81
2023/07/12 08:55:49;;;;;;;9.00;2.57;;;26.90;23.20;;;;;;5077366;27;48334;-81
2023/07/12 08:58:50;;;;;;;7.60;2.43;;;26.90;23.40;;;;;;5077993;27;46557;-81
2023/07/12 09:01:42;;;;;;;5.27;2.40;;;27.00;23.00;;;;;;5070934;27;46808;-81
2023/07/12 09:04:24;;;;;;;8.30;2.60;;;27.20;22.90;;;;;;5057808;27;47060;-83
2023/07/12 09:06:53;;;;;;;5.83;1.90;;;27.40;22.00;;;;;;5078699;27;46458;-84
2023/07/12 09:09:18;;;;;;;5.70;2.10;;;27.50;21.90;;;;;;5078689;27;46854;-84
2023/07/12 09:11:45;;;;;;;5.30;2.00;;;27.50;21.60;;;;;;5062251;27;46410;-82
2023/07/12 09:14:22;;;;;;;6.70;2.80;;;27.60;21.30;;;;;;5080423;27;46739;-83
2023/07/12 09:16:54;;;;;;;10.70;2.63;;;27.60;20.80;;;;;;5077585;27;46618;-84
2023/07/12 09:19:23;;;;;;;5.97;2.40;;;27.30;20.90;;;;;;5082000;27;46509;-83
2023/07/12 09:21:54;;;;;;;9.37;2.30;;;27.40;21.00;;;;;;5080724;27;46427;-83
2023/07/12 09:24:31;;;;;;;7.87;2.30;;;27.70;20.50;;;;;;5077226;27;46513;-85
2023/07/12 09:27:16;;;;;;;5.23;2.27;;;27.80;20.20;;;;;;5078400;27;47474;-85
2023/07/12 09:29:41;;;;;;;7.23;2.33;;;28.10;19.40;;;;;;5062884;27;45865;-82
2023/07/12 09:32:23;;;;;;;5.93;2.40;;;28.40;18.90;;;;;;5074345;27;46524;-82
2023/07/12 09:34:50;;;;;;;5.83;2.30;;;28.50;17.90;;;;;;5076409;27;46495;-82
2023/07/12 09:37:18;;;;;;;7.20;2.30;;;28.40;17.70;;;;;;5077047;27;46482;-80
2023/07/12 09:39:57;;;;;;;8.70;2.83;;;28.40;17.70;;;;;;5085061;27;46685;-80
2023/07/12 09:42:23;;;;;;;6.10;2.10;;;28.40;16.70;;;;;;5080228;27;46493;-82
2023/07/12 09:44:50;;;;;;;6.00;1.90;;;28.50;16.70;;;;;;5082474;27;46467;-81
2023/07/12 09:47:40;;;;;;;6.67;2.60;;;28.70;16.60;;;;;;5094044;27;46556;-82
2023/07/12 09:50:16;;;;;;;5.60;2.70;;;28.90;15.80;;;;;;5086744;27;46792;-79
2023/07/12 09:53:09;;;;;;;8.57;3.10;;;28.70;15.60;;;;;;5077718;27;46494;-80
2023/07/12 09:55:44;;;;;;;9.03;2.47;;;28.70;15.80;;;;;;5081908;27;46397;-82
2023/07/12 09:58:27;;;;;;;11.77;2.67;;;28.40;15.90;;;;;;5076277;27;46891;-81
2023/07/12 10:01:04;;;;;;;6.27;2.30;;;28.40;15.70;;;;;;5059449;27;45958;-81
2023/07/12 10:03:38;;;;;;;6.37;2.40;;;28.00;15.80;;;;;;5079889;27;46537;-83
2023/07/12 10:06:41;;;;;;;8.63;2.77;;;27.80;16.40;;;;;;5079444;27;46637;-82
2023/07/12 10:09:21;;;;;;;8.10;2.60;;;27.80;16.40;;;;;;5079475;27;46552;-77
2023/07/12 10:12:07;;;;;;;8.47;2.80;;;27.90;15.50;;;;;;5076904;27;46436;-80
2023/07/12 10:14:37;;;;;;;8.67;2.60;;;27.90;16.40;;;;;;5079051;27;46455;-80
2023/07/12 10:17:03;;;;;;;8.40;3.40;;;28.00;16.50;;;;;;5059088;27;46828;-78
2023/07/12 10:19:33;;;;;;;11.90;3.03;;;28.10;16.50;;;;;;5075691;27;47381;-78
2023/07/12 10:22:01;;;;;;;10.50;3.30;;;28.50;15.90;;;;;;5078176;27;46474;-78
2023/07/12 10:24:43;;;;;;;7.00;3.00;;;28.50;16.70;;;;;;5083518;27;46622;-77
2023/07/12 10:27:24;;;;;;;10.17;3.60;;;28.40;16.70;;;;;;5082431;27;46497;-77
2023/07/12 10:30:04;;;;;;;17.10;3.60;;;28.20;16.70;;;;;;5078543;27;48376;-78
2023/07/12 10:32:53;;;;;;;12.30;3.80;;;28.10;17.60;;;;;;5083144;27;46578;-78
2023/07/12 10:35:30;;;;;;;8.73;3.80;;;28.10;17.40;;;;;;5081592;27;46430;-78
2023/07/12 10:38:03;;;;;;;8.40;3.90;;;28.00;17.40;;;;;;5078420;27;47023;-80
2023/07/12 10:40:37;;;;;;;12.90;4.40;;;28.20;17.20;;;;;;5080412;27;46646;-81
2023/07/12 10:43:08;;;;;;;15.13;4.00;;;28.50;17.10;;;;;;5079907;27;46430;-78
2023/07/12 10:45:37;;;;;;;8.63;3.90;;;28.60;16.90;;;;;;5082009;27;46420;-80
2023/07/12 10:48:04;;;;;;;8.63;3.87;;;28.90;17.00;;;;;;5082411;27;46334;-80
2023/07/12 10:50:37;;;;;;;13.87;4.00;;;29.20;16.00;;;;;;5060080;27;48245;-77
2023/07/12 10:53:21;;;;;;;15.40;4.47;;;29.50;15.30;;;;;;5082219;27;46391;-77
2023/07/12 10:56:07;;;;;;;9.27;4.00;;;29.10;15.40;;;;;;5085651;27;46490;-76
2023/07/12 10:58:46;;;;;;;11.60;4.40;;;28.80;16.00;;;;;;5088063;27;46162;-79
2023/07/12 11:01:35;;;;;;;12.77;4.17;;;28.90;16.10;;;;;;5085219;27;47527;-81
2023/07/12 11:04:15;;;;;;;8.03;4.10;;;29.30;15.20;;;;;;5088044;27;46611;-79
2023/07/12 11:06:58;;;;;;;13.97;3.87;;;29.70;14.20;;;;;;5062964;27;46781;-78
2023/07/12 11:09:25;;;;;;;10.23;4.30;;;29.90;13.60;;;;;;5079380;27;46981;-80
2023/07/12 11:12:05;;;;;;;11.80;3.97;;;30.30;13.00;;;;;;5063292;27;48346;-79
2023/07/12 11:14:41;;;;;;;13.17;3.90;;;30.40;12.50;;;;;;5079722;27;46653;-79
2023/07/12 11:17:06;;;;;;;8.53;4.10;;;30.20;12.70;;;;;;5079289;27;46962;-78
2023/07/12 11:19:41;;;;;;;11.60;3.77;;;30.10;12.90;;;;;;5060497;27;46606;-78
2023/07/12 11:22:19;;;;;;;11.40;5.03;;;30.40;12.80;;;;;;5079555;27;46394;-78
2023/07/12 11:24:52;;;;;;;12.00;4.60;;;30.60;12.10;;;;;;5080112;27;46372;-80
2023/07/12 11:27:32;;;;;;;10.30;5.33;;;30.70;11.90;;;;;;5079114;27;46763;-78
2023/07/12 11:30:26;;;;;;;11.83;4.10;;;30.60;11.80;;;;;;5081653;27;46739;-79
2023/07/12 11:33:16;;;;;;;14.67;4.90;;;30.80;11.70;;;;;;5078438;27;46771;-78
2023/07/12 11:35:51;;;;;;;9.53;5.07;;;30.90;11.00;;;;;;5080808;27;46753;-79
2023/07/12 11:38:24;;;;;;;10.90;4.97;;;30.80;11.10;;;;;;5081269;27;46408;-77
2023/07/12 11:40:56;;;;;;;14.13;4.77;;;30.30;11.70;;;;;;5081064;27;46673;-80
2023/07/12 11:43:24;;;;;;;7.87;4.50;;;29.70;12.80;;;;;;5080576;27;46469;-80
2023/07/12 11:45:51;;;;;;;10.53;4.70;;;29.60;13.10;;;;;;5063404;27;46438;-76
2023/07/12 11:48:17;;;;;;;14.90;4.63;;;29.90;12.90;;;;;;5081438;27;46710;-76
2023/07/12 11:50:47;;;;;;;9.80;4.77;;;30.00;12.50;;;;;;5061398;27;46729;-77
2023/07/12 11:53:14;;;;;;;9.27;4.80;;;30.00;12.50;;;;;;5064468;27;48529;-81
2023/07/12 11:55:40;;;;;;;14.50;5.00;;;30.10;12.50;;;;;;5081206;27;46692;-77
2023/07/12 11:58:20;;;;;;;11.43;5.10;;;30.20;12.30;;;;;;5082283;27;46792;-80
2023/07/12 12:00:51;;;;;;;14.60;5.50;;;29.90;12.40;;;;;;5082405;27;46524;-80
2023/07/12 12:03:20;;;;;;;10.60;5.60;;;29.80;12.70;;;;;;5077959;27;48282;-77
2023/07/12 12:05:46;;;;;;;9.93;5.40;;;29.90;12.90;;;;;;5085054;27;46738;-79
2023/07/12 12:08:19;;;;;;;10.40;5.50;;;30.20;12.50;;;;;;5079358;27;46364;-79
2023/07/12 12:10:48;;;;;;;12.60;4.97;;;30.30;12.20;;;;;;5064795;27;46446;-79
2023/07/12 12:13:23;;;;;;;10.00;4.90;;;30.50;11.70;;;;;;5078722;27;46467;-79
2023/07/12 12:15:52;;;;;;;12.90;5.97;;;30.80;11.00;;;;;;5081342;27;46453;-79
2023/07/12 12:18:19;;;;;;;11.97;5.30;;;30.70;11.80;;;;;;5065067;27;46441;-78
2023/07/12 12:21:15;;;;;;;9.53;5.07;;;30.60;11.00;;;;;;5085224;27;47604;-80
2023/07/12 12:23:47;;;;;;;11.40;5.27;;;30.10;11.60;;;;;;5077725;27;46448;-80
2023/07/12 12:26:19;;;;;;;17.27;5.83;;;29.80;12.30;;;;;;5080126;27;46782;-78
2023/07/12 12:29:16;;;;;;;15.47;5.97;;;29.40;13.00;;;;;;5078546;27;46746;-77
2023/07/12 12:31:53;;;;;;;12.60;5.00;;;29.10;13.10;;;;;;5073950;27;46706;-79
2023/07/12 12:34:19;;;;;;;12.13;5.90;;;29.10;14.20;;;;;;5079693;27;46399;-80
2023/07/12 12:37:08;;;;;;;11.47;5.53;;;28.90;14.40;;;;;;5079587;27;46568;-77
2023/07/12 12:39:34;;;;;;;19.63;6.63;;;28.50;15.30;;;;;;5081162;27;46606;-78
2023/07/12 12:42:21;;;;;;;15.37;6.53;;;28.30;15.80;;;;;;5080896;27;46486;-77
2023/07/12 12:44:46;;;;;;;17.50;7.60;;;27.90;16.60;;;;;;5081253;27;46397;-82
2023/07/12 12:47:20;;;;;;;18.10;7.30;;;27.50;17.90;;;;;;5079308;27;46412;-79
2023/07/12 12:49:47;;;;;;;21.60;6.90;;;27.30;19.10;;;;;;5079107;27;46516;-77
2023/07/12 12:52:25;;;;;;;13.83;5.67;;;27.30;19.40;;;;;;5083053;27;46536;-82
2023/07/12 12:54:51;;;;;;;19.00;7.63;;;27.50;20.20;;;;;;5082855;27;46525;-80